createdAt,value
2018-02-25T00:02:05.358Z,-5.70
2018-02-25T00:04:34.423Z,-5.80
2018-02-25T00:07:02.662Z,-5.80
2018-02-25T00:09:30.934Z,-5.80
2018-02-25T00:11:59.276Z,-5.80
2018-02-25T00:14:27.498Z,-5.90
2018-02-25T00:16:55.754Z,-5.90
2018-02-25T00:19:23.964Z,-5.80
2018-02-25T00:21:52.212Z,-5.90
2018-02-25T00:24:20.433Z,-6.00
2018-02-25T00:26:48.672Z,-6.00
2018-02-25T00:29:17.034Z,-6.00
2018-02-25T00:31:45.254Z,-6.00
2018-02-25T00:34:13.592Z,-6.10
2018-02-25T00:36:41.865Z,-6.10
2018-02-25T00:39:10.653Z,-6.20
2018-02-25T00:41:38.906Z,-6.20
2018-02-25T00:44:07.899Z,-6.20
2018-02-25T00:46:36.909Z,-6.30
2018-02-25T00:49:05.134Z,-6.30
2018-02-25T00:51:33.376Z,-6.30
2018-02-25T00:54:01.597Z,-6.30
2018-02-25T00:56:29.892Z,-6.30
2018-02-25T00:58:58.101Z,-6.30
2018-02-25T01:01:26.320Z,-6.40
2018-02-25T01:03:54.574Z,-6.40
2018-02-25T01:06:23.685Z,-6.30
2018-02-25T01:08:51.936Z,-6.40
2018-02-25T01:11:20.168Z,-6.40
2018-02-25T01:13:48.385Z,-6.50
2018-02-25T01:16:16.642Z,-6.40
2018-02-25T01:18:44.898Z,-6.50
2018-02-25T01:21:13.089Z,-6.50
2018-02-25T01:23:42.105Z,-6.50
2018-02-25T01:26:10.320Z,-6.50
2018-02-25T01:28:38.569Z,-6.50
2018-02-25T01:31:06.790Z,-6.50
2018-02-25T01:33:35.813Z,-6.60
2018-02-25T01:36:04.030Z,-6.60
2018-02-25T01:38:32.282Z,-6.60
2018-02-25T01:41:00.530Z,-6.60
2018-02-25T01:43:28.745Z,-6.70
2018-02-25T01:45:56.997Z,-6.70
2018-02-25T01:48:25.213Z,-6.70
2018-02-25T01:51:03.421Z,-6.80
2018-02-25T01:53:31.680Z,-6.80
2018-02-25T01:55:59.906Z,-6.80
2018-02-25T01:58:28.921Z,-6.80
2018-02-25T02:00:57.188Z,-6.90
2018-02-25T02:03:26.181Z,-7.00
2018-02-25T02:05:55.873Z,-7.00
2018-02-25T02:08:24.113Z,-7.00
2018-02-25T02:10:52.366Z,-6.90
2018-02-25T02:13:20.594Z,-7.00
2018-02-25T02:15:49.725Z,-7.00
2018-02-25T02:18:17.969Z,-7.00
2018-02-25T02:20:46.460Z,-7.00
2018-02-25T02:23:14.705Z,-7.00
2018-02-25T02:25:42.929Z,-7.00
2018-02-25T02:28:11.936Z,-7.10
2018-02-25T02:30:40.489Z,-7.10
2018-02-25T02:33:09.511Z,-7.10
2018-02-25T02:35:37.735Z,-7.10
2018-02-25T02:38:06.962Z,-7.20
2018-02-25T02:40:35.169Z,-7.30
2018-02-25T02:43:03.414Z,-7.30
2018-02-25T02:45:32.405Z,-7.30
2018-02-25T02:48:01.500Z,-7.30
2018-02-25T02:50:29.717Z,-7.30
2018-02-25T02:52:57.957Z,-7.40
2018-02-25T02:55:26.961Z,-7.30
2018-02-25T02:57:55.189Z,-7.40
2018-02-25T03:00:23.448Z,-7.40
2018-02-25T03:02:51.674Z,-7.40
2018-02-25T03:05:20.694Z,-7.40
2018-02-25T03:07:48.917Z,-7.40
2018-02-25T03:10:17.145Z,-7.50
2018-02-25T03:12:45.397Z,-7.50
2018-02-25T03:15:14.491Z,-7.60
2018-02-25T03:17:42.708Z,-7.70
2018-02-25T03:20:10.961Z,-7.60
2018-02-25T03:22:39.213Z,-7.60
2018-02-25T03:25:08.200Z,-7.50
2018-02-25T03:27:36.414Z,-7.60
2018-02-25T03:30:04.660Z,-7.60
2018-02-25T03:32:32.913Z,-7.60
2018-02-25T03:35:01.886Z,-7.70
2018-02-25T03:37:30.141Z,-7.70
2018-02-25T03:39:58.360Z,-7.70
2018-02-25T03:42:26.613Z,-7.70
2018-02-25T03:44:54.882Z,-7.80
2018-02-25T03:47:23.134Z,-7.90
2018-02-25T03:49:51.389Z,-7.90
2018-02-25T03:52:19.645Z,-7.90
2018-02-25T03:54:47.862Z,-7.80
2018-02-25T03:57:16.083Z,-7.80
2018-02-25T03:59:44.317Z,-7.80
2018-02-25T04:02:12.569Z,-7.80
2018-02-25T04:04:40.848Z,-7.90
2018-02-25T04:07:09.042Z,-7.90
2018-02-25T04:09:37.289Z,-7.90
2018-02-25T04:12:05.532Z,-7.90
2018-02-25T04:14:33.881Z,-7.90
2018-02-25T04:17:02.129Z,-8.00
2018-02-25T04:19:31.146Z,-8.00
2018-02-25T04:21:59.366Z,-8.10
2018-02-25T04:24:27.617Z,-8.10
2018-02-25T04:26:55.846Z,-8.10
2018-02-25T04:29:24.090Z,-8.00
2018-02-25T04:31:52.304Z,-8.00
2018-02-25T04:34:21.324Z,-8.10
2018-02-25T04:36:49.569Z,-8.10
2018-02-25T04:39:18.586Z,-8.10
2018-02-25T04:41:47.568Z,-8.10
2018-02-25T04:44:16.583Z,-8.10
2018-02-25T04:46:44.801Z,-8.20
2018-02-25T04:49:14.643Z,-8.30
2018-02-25T04:51:42.861Z,-8.30
2018-02-25T04:54:11.130Z,-8.30
2018-02-25T04:56:39.401Z,-8.40
2018-02-25T04:59:07.622Z,-8.40
2018-02-25T05:01:35.849Z,-8.40
2018-02-25T05:04:04.129Z,-8.30
2018-02-25T05:06:32.349Z,-8.30
2018-02-25T05:09:00.610Z,-8.40
2018-02-25T05:11:28.869Z,-8.30
2018-02-25T05:13:57.138Z,-8.40
2018-02-25T05:16:25.364Z,-8.30
2018-02-25T05:18:53.625Z,-8.40
2018-02-25T05:21:22.580Z,-8.40
2018-02-25T05:23:50.843Z,-8.40
2018-02-25T05:26:19.830Z,-8.50
2018-02-25T05:28:48.834Z,-8.60
2018-02-25T05:31:17.193Z,-8.60
2018-02-25T05:33:45.398Z,-8.60
2018-02-25T05:36:13.748Z,-8.60
2018-02-25T05:38:42.261Z,-8.70
2018-02-25T05:41:10.505Z,-8.70
2018-02-25T05:43:39.538Z,-8.70
2018-02-25T05:46:07.817Z,-8.70
2018-02-25T05:48:36.161Z,-8.70
2018-02-25T05:51:04.468Z,-8.70
2018-02-25T05:53:32.721Z,-8.70
2018-02-25T05:56:01.012Z,-8.70
2018-02-25T05:58:29.292Z,-8.80
2018-02-25T06:00:57.516Z,-8.80
2018-02-25T06:03:27.284Z,-8.90
2018-02-25T06:05:55.557Z,-8.90
2018-02-25T06:08:23.805Z,-8.80
2018-02-25T06:10:52.798Z,-8.80
2018-02-25T06:13:21.817Z,-8.80
2018-02-25T06:15:50.067Z,-8.80
2018-02-25T06:18:18.546Z,-8.80
2018-02-25T06:20:47.572Z,-8.80
2018-02-25T06:23:16.022Z,-8.80
2018-02-25T06:25:45.024Z,-8.80
2018-02-25T06:28:14.038Z,-8.80
2018-02-25T06:30:42.297Z,-8.80
2018-02-25T06:33:10.979Z,-8.70
2018-02-25T06:35:39.164Z,-8.70
2018-02-25T06:38:07.456Z,-8.70
2018-02-25T06:40:35.685Z,-8.70
2018-02-25T06:43:03.953Z,-8.70
2018-02-25T06:45:33.075Z,-8.70
2018-02-25T06:48:01.321Z,-8.70
2018-02-25T06:50:29.549Z,-8.60
2018-02-25T06:52:57.908Z,-8.60
2018-02-25T06:55:26.093Z,-8.50
2018-02-25T06:57:55.124Z,-8.50
2018-02-25T07:00:23.357Z,-8.50
2018-02-25T07:02:52.345Z,-8.40
2018-02-25T07:05:21.340Z,-8.40
2018-02-25T07:07:50.338Z,-8.30
2018-02-25T07:10:19.360Z,-8.30
2018-02-25T07:12:47.638Z,-8.30
2018-02-25T07:15:15.865Z,-8.30
2018-02-25T07:17:44.128Z,-8.20
2018-02-25T07:20:12.370Z,-8.20
2018-02-25T07:22:40.617Z,-8.20
2018-02-25T07:25:09.705Z,-8.00
2018-02-25T07:27:37.980Z,-8.10
2018-02-25T07:30:07.097Z,-8.00
2018-02-25T07:32:35.457Z,-7.90
2018-02-25T07:35:04.348Z,-7.70
2018-02-25T07:37:32.538Z,-6.90
2018-02-25T07:40:01.543Z,-3.50
2018-02-25T07:42:29.812Z,-3.60
2018-02-25T07:44:58.014Z,-2.80
2018-02-25T07:47:26.228Z,-2.30
2018-02-25T07:49:54.469Z,-2.40
2018-02-25T07:52:22.712Z,-2.20
2018-02-25T07:54:51.694Z,-1.50
2018-02-25T07:57:20.710Z,-0.90
2018-02-25T07:59:48.964Z,-1.00
2018-02-25T08:02:17.181Z,-0.90
2018-02-25T08:04:45.414Z,-1.30
2018-02-25T08:07:13.922Z,-0.70
2018-02-25T08:09:42.140Z,-1.60
2018-02-25T08:12:10.384Z,-1.00
2018-02-25T08:14:38.603Z,-1.20
2018-02-25T08:17:06.822Z,-0.30
2018-02-25T08:19:35.586Z,-0.80
2018-02-25T08:22:04.601Z,0.50
2018-02-25T08:24:33.593Z,1.20
2018-02-25T08:27:01.882Z,1.20
2018-02-25T08:29:30.122Z,2.90
2018-02-25T08:31:59.137Z,3.30
2018-02-25T08:34:28.116Z,3.20
2018-02-25T08:36:57.105Z,2.90
2018-02-25T08:39:25.381Z,2.90
2018-02-25T08:41:53.626Z,3.60
2018-02-25T08:44:21.822Z,4.80
2018-02-25T08:46:50.108Z,4.50
2018-02-25T08:49:18.385Z,4.60
2018-02-25T08:51:46.600Z,4.20
2018-02-25T08:54:15.142Z,2.50
2018-02-25T08:56:43.384Z,2.40
2018-02-25T08:59:11.629Z,2.10
2018-02-25T09:01:39.906Z,4.00
2018-02-25T09:04:08.122Z,3.40
2018-02-25T09:06:36.425Z,2.70
2018-02-25T09:09:04.805Z,3.40
2018-02-25T09:11:33.017Z,2.30
2018-02-25T09:14:01.254Z,1.60
2018-02-25T09:16:29.473Z,1.60
2018-02-25T09:18:57.686Z,2.50
2018-02-25T09:21:26.185Z,3.20
2018-02-25T09:23:54.441Z,2.00
2018-02-25T09:26:22.665Z,2.70
2018-02-25T09:28:50.917Z,2.70
2018-02-25T09:31:19.130Z,3.80
2018-02-25T09:33:47.365Z,2.80
2018-02-25T09:36:15.587Z,2.70
2018-02-25T09:38:43.834Z,3.70
2018-02-25T09:41:12.840Z,4.30
2018-02-25T09:43:41.058Z,4.30
2018-02-25T09:46:09.294Z,3.70
2018-02-25T09:48:37.498Z,4.20
2018-02-25T09:51:05.917Z,3.50
2018-02-25T09:53:34.121Z,2.90
2018-02-25T09:56:02.331Z,4.60
2018-02-25T09:58:30.583Z,5.20
2018-02-25T10:00:58.818Z,4.20
2018-02-25T10:03:27.025Z,4.30
2018-02-25T10:05:55.277Z,4.00
2018-02-25T10:08:24.365Z,3.90
2018-02-25T10:10:53.429Z,3.80
2018-02-25T10:13:21.657Z,3.30
2018-02-25T10:15:50.634Z,4.30
2018-02-25T10:18:18.875Z,4.30
2018-02-25T10:20:47.183Z,4.60
2018-02-25T10:23:15.386Z,4.50
2018-02-25T10:25:43.593Z,4.70
2018-02-25T10:28:11.830Z,4.90
2018-02-25T10:30:40.854Z,4.30
2018-02-25T10:33:09.060Z,4.30
2018-02-25T10:35:37.294Z,4.20
2018-02-25T10:38:06.282Z,4.40
2018-02-25T10:40:34.493Z,4.30
2018-02-25T10:43:02.737Z,4.70
2018-02-25T10:45:30.961Z,5.50
2018-02-25T10:47:59.251Z,5.30
2018-02-25T10:50:28.249Z,4.60
2018-02-25T10:52:56.522Z,4.10
2018-02-25T10:55:24.761Z,3.90
2018-02-25T10:57:53.705Z,3.20
2018-02-25T11:00:28.369Z,2.70
2018-02-25T11:02:56.606Z,2.70
2018-02-25T11:05:25.610Z,3.10
2018-02-25T11:07:54.597Z,3.30
2018-02-25T11:10:23.606Z,3.30
2018-02-25T11:12:51.808Z,3.30
2018-02-25T11:15:20.126Z,2.90
2018-02-25T11:17:48.326Z,3.40
2018-02-25T11:20:16.577Z,3.00
2018-02-25T11:22:44.774Z,3.50
2018-02-25T11:25:13.772Z,3.20
2018-02-25T11:27:42.021Z,3.10
2018-02-25T11:30:10.216Z,3.20
2018-02-25T11:32:39.212Z,3.70
2018-02-25T11:35:08.221Z,3.30
2018-02-25T11:37:36.428Z,3.20
2018-02-25T11:40:04.665Z,3.20
2018-02-25T11:42:34.651Z,2.30
2018-02-25T11:45:02.936Z,2.30
2018-02-25T11:47:31.112Z,2.50
2018-02-25T11:50:00.113Z,3.80
2018-02-25T11:52:29.089Z,4.70
2018-02-25T11:54:57.321Z,4.70
2018-02-25T11:57:25.643Z,4.80
2018-02-25T11:59:53.844Z,3.90
2018-02-25T12:02:22.816Z,2.70
2018-02-25T12:04:51.908Z,3.70
2018-02-25T12:07:20.119Z,3.70
2018-02-25T12:09:48.461Z,3.10
2018-02-25T12:12:16.840Z,2.90
2018-02-25T12:14:45.020Z,1.90
2018-02-25T12:17:14.113Z,0.90
2018-02-25T12:19:42.301Z,0.90
2018-02-25T12:22:11.285Z,0.20
2018-02-25T12:24:40.375Z,-0.80
2018-02-25T12:27:08.590Z,-0.80
2018-02-25T12:29:36.825Z,-1.30
2018-02-25T12:32:06.082Z,-1.10
2018-02-25T12:34:34.315Z,-1.10
2018-02-25T12:37:03.314Z,-1.10
2018-02-25T12:39:32.390Z,-1.10
2018-02-25T12:42:00.698Z,-1.10
2018-02-25T12:44:28.949Z,-1.40
2018-02-25T12:46:57.928Z,-1.60
2018-02-25T12:49:26.175Z,-1.70
2018-02-25T12:51:54.393Z,-1.60
2018-02-25T12:54:23.629Z,-1.50
2018-02-25T12:56:51.841Z,-1.50
2018-02-25T12:59:20.085Z,-1.80
2018-02-25T13:01:48.470Z,-1.90
2018-02-25T13:04:16.684Z,-1.60
2018-02-25T13:06:44.971Z,-1.70
2018-02-25T13:09:13.177Z,-1.80
2018-02-25T13:11:42.260Z,-1.60
2018-02-25T13:14:10.509Z,-1.70
2018-02-25T13:16:38.721Z,-1.60
2018-02-25T13:19:07.071Z,-1.80
2018-02-25T13:21:35.349Z,-1.90
2018-02-25T13:24:03.625Z,-1.80
2018-02-25T13:26:31.806Z,-1.80
2018-02-25T13:29:01.100Z,-1.90
2018-02-25T13:31:29.377Z,-1.90
2018-02-25T13:33:57.778Z,-1.80
2018-02-25T13:36:26.032Z,-1.90
2018-02-25T13:38:54.342Z,-1.90
2018-02-25T13:41:22.586Z,-1.90
2018-02-25T13:43:50.868Z,-1.90
2018-02-25T13:46:19.084Z,-2.00
2018-02-25T13:48:47.360Z,-2.00
2018-02-25T13:51:15.596Z,-1.90
2018-02-25T13:53:44.687Z,-2.00
2018-02-25T13:56:12.898Z,-2.00
2018-02-25T13:58:41.138Z,-2.00
2018-02-25T14:01:09.364Z,-2.00
2018-02-25T14:03:37.692Z,-2.00
2018-02-25T14:06:05.968Z,-2.00
2018-02-25T14:08:34.182Z,-2.00
2018-02-25T14:11:02.425Z,-2.10
2018-02-25T14:13:31.440Z,-2.00
2018-02-25T14:15:59.658Z,-2.00
2018-02-25T14:18:27.967Z,-2.00
2018-02-25T14:20:56.244Z,-2.00
2018-02-25T14:23:25.239Z,-2.00
2018-02-25T14:25:53.442Z,-2.20
2018-02-25T14:28:21.681Z,-2.20
2018-02-25T14:30:49.901Z,-2.20
2018-02-25T14:33:18.156Z,-2.20
2018-02-25T14:35:47.138Z,-2.10
2018-02-25T14:38:15.387Z,-2.20
2018-02-25T14:40:43.688Z,-2.10
2018-02-25T14:43:12.821Z,-2.20
2018-02-25T14:45:41.050Z,-2.20
2018-02-25T14:48:09.297Z,-2.10
2018-02-25T14:50:38.272Z,-2.20
2018-02-25T14:53:06.498Z,-2.20
2018-02-25T14:55:34.753Z,-2.30
2018-02-25T14:58:03.042Z,-2.30
2018-02-25T15:00:31.252Z,-2.30
2018-02-25T15:03:00.274Z,-2.30
2018-02-25T15:05:28.517Z,-2.30
2018-02-25T15:07:57.530Z,-2.40
2018-02-25T15:10:25.749Z,-2.40
2018-02-25T15:12:53.990Z,-2.40
2018-02-25T15:15:22.234Z,-2.50
2018-02-25T15:17:51.373Z,-2.50
2018-02-25T15:20:19.599Z,-2.50
2018-02-25T15:22:47.782Z,-2.50
2018-02-25T15:25:16.809Z,-2.60
2018-02-25T15:27:45.044Z,-2.60
2018-02-25T15:30:14.042Z,-2.70
2018-02-25T15:32:43.066Z,-2.70
2018-02-25T15:35:11.290Z,-2.70
2018-02-25T15:37:39.515Z,-2.70
2018-02-25T15:40:07.770Z,-2.80
2018-02-25T15:42:36.828Z,-2.80
2018-02-25T15:45:05.132Z,-2.80
2018-02-25T15:47:33.321Z,-2.80
2018-02-25T15:50:02.329Z,-3.00
2018-02-25T15:52:30.573Z,-3.00
2018-02-25T15:54:58.852Z,-3.00
2018-02-25T15:57:27.034Z,-3.10
2018-02-25T15:59:56.047Z,-3.10
2018-02-25T16:02:24.265Z,-3.20
2018-02-25T16:04:52.605Z,-3.20
2018-02-25T16:07:20.852Z,-3.30
2018-02-25T16:09:49.066Z,-3.30
2018-02-25T16:12:17.282Z,-3.40
2018-02-25T16:14:45.541Z,-3.50
2018-02-25T16:17:13.762Z,-3.50
2018-02-25T16:19:42.774Z,-3.60
2018-02-25T16:22:11.015Z,-3.60
2018-02-25T16:24:39.300Z,-3.60
2018-02-25T16:27:07.521Z,-3.70
2018-02-25T16:29:35.751Z,-3.80
2018-02-25T16:32:04.027Z,-3.90
2018-02-25T16:34:32.981Z,-3.90
2018-02-25T16:37:01.248Z,-3.90
2018-02-25T16:39:30.292Z,-4.10
2018-02-25T16:41:58.482Z,-4.10
2018-02-25T16:44:27.496Z,-4.20
2018-02-25T16:46:55.741Z,-4.20
2018-02-25T16:49:24.832Z,-4.20
2018-02-25T16:51:53.969Z,-4.20
2018-02-25T16:54:22.206Z,-4.20
2018-02-25T16:56:50.441Z,-4.30
2018-02-25T16:59:18.759Z,-4.30
2018-02-25T17:01:47.037Z,-4.40
2018-02-25T17:04:15.238Z,-4.40
2018-02-25T17:06:43.459Z,-4.40
2018-02-25T17:09:12.525Z,-4.40
2018-02-25T17:11:41.646Z,-4.50
2018-02-25T17:14:09.874Z,-4.60
2018-02-25T17:16:38.890Z,-4.80
2018-02-25T17:19:07.115Z,-4.80
2018-02-25T17:21:35.367Z,-4.80
2018-02-25T17:24:03.585Z,-4.80
2018-02-25T17:26:32.878Z,-4.90
2018-02-25T17:29:01.098Z,-4.90
2018-02-25T17:31:29.369Z,-4.90
2018-02-25T17:33:57.605Z,-4.90
2018-02-25T17:36:26.608Z,-4.90
2018-02-25T17:38:55.617Z,-5.00
2018-02-25T17:41:24.380Z,-5.00
2018-02-25T17:43:53.537Z,-5.00
2018-02-25T17:46:21.855Z,-5.00
2018-02-25T17:48:50.039Z,-5.20
2018-02-25T17:51:19.088Z,-5.20
2018-02-25T17:53:47.403Z,-5.20
2018-02-25T17:56:15.613Z,-5.20
2018-02-25T17:58:44.573Z,-5.20
2018-02-25T18:01:12.794Z,-5.20
2018-02-25T18:03:41.270Z,-5.20
2018-02-25T18:06:09.509Z,-5.30
2018-02-25T18:08:38.538Z,-5.40
2018-02-25T18:11:06.753Z,-5.40
2018-02-25T18:13:34.997Z,-5.40
2018-02-25T18:16:03.231Z,-5.40
2018-02-25T18:18:32.245Z,-5.50
2018-02-25T18:21:00.465Z,-5.50
2018-02-25T18:23:29.486Z,-5.60
2018-02-25T18:25:57.705Z,-5.60
2018-02-25T18:28:25.953Z,-5.60
2018-02-25T18:30:55.043Z,-5.80
2018-02-25T18:33:23.257Z,-5.80
2018-02-25T18:35:51.483Z,-5.80
2018-02-25T18:38:19.728Z,-5.80
2018-02-25T18:40:47.945Z,-5.80
2018-02-25T18:43:17.446Z,-5.80
2018-02-25T18:45:45.720Z,-5.90
2018-02-25T18:48:14.678Z,-6.00
2018-02-25T18:50:42.912Z,-6.10
2018-02-25T18:53:11.926Z,-5.90
2018-02-25T18:55:40.459Z,-5.90
2018-02-25T18:58:09.645Z,-5.90
2018-02-25T19:00:38.845Z,-6.00
2018-02-25T19:03:07.103Z,-6.00
2018-02-25T19:05:35.348Z,-6.10
2018-02-25T19:08:03.569Z,-6.20
2018-02-25T19:10:31.867Z,-6.20
2018-02-25T19:13:00.325Z,-6.10
2018-02-25T19:15:28.847Z,-6.10
2018-02-25T19:17:57.222Z,-6.20
2018-02-25T19:20:25.721Z,-6.30
2018-02-25T19:22:54.447Z,-6.30
2018-02-25T19:25:23.242Z,-6.40
2018-02-25T19:27:51.937Z,-6.30
2018-02-25T19:30:20.273Z,-6.30
2018-02-25T19:32:48.775Z,-6.40
2018-02-25T19:35:17.156Z,-6.40
2018-02-25T19:37:51.184Z,-6.40
2018-02-25T19:40:25.088Z,-6.40
2018-02-25T19:42:54.510Z,-6.50
2018-02-25T19:45:22.998Z,-6.50
2018-02-25T19:47:52.212Z,-6.60
2018-02-25T19:50:20.612Z,-6.70
2018-02-25T19:52:49.454Z,-6.70
2018-02-25T19:55:18.811Z,-6.90
2018-02-25T19:57:47.506Z,-6.90
2018-02-25T20:00:16.167Z,-6.90
2018-02-25T20:02:44.512Z,-7.00
2018-02-25T20:05:13.833Z,-6.90
2018-02-25T20:07:42.256Z,-7.00
2018-02-25T20:10:11.410Z,-7.10
2018-02-25T20:12:40.574Z,-7.10
2018-02-25T20:15:08.982Z,-7.20
2018-02-25T20:17:37.328Z,-7.00
2018-02-25T20:20:05.747Z,-7.00
2018-02-25T20:22:34.177Z,-6.90
2018-02-25T20:25:02.628Z,-6.80
2018-02-25T20:27:31.147Z,-6.80
2018-02-25T20:29:59.603Z,-6.60
2018-02-25T20:32:28.223Z,-6.70
2018-02-25T20:34:56.751Z,-6.70
2018-02-25T20:37:25.069Z,-6.80
2018-02-25T20:39:53.391Z,-6.90
2018-02-25T20:42:22.554Z,-7.00
2018-02-25T20:44:50.959Z,-7.00
2018-02-25T20:47:20.063Z,-7.20
2018-02-25T20:49:49.203Z,-7.10
2018-02-25T20:52:18.466Z,-6.90
2018-02-25T20:54:46.850Z,-6.90
2018-02-25T20:57:16.032Z,-6.90
2018-02-25T20:59:45.144Z,-6.90
2018-02-25T21:02:13.483Z,-6.90
2018-02-25T21:04:42.639Z,-6.90
2018-02-25T21:07:10.961Z,-7.00
2018-02-25T21:09:40.082Z,-7.00
2018-02-25T21:12:08.498Z,-7.00
2018-02-25T21:14:36.930Z,-7.00
2018-02-25T21:17:05.285Z,-7.10
2018-02-25T21:19:33.672Z,-6.90
2018-02-25T21:22:02.035Z,-7.00
2018-02-25T21:24:31.156Z,-6.80
2018-02-25T21:26:59.513Z,-6.80
2018-02-25T21:29:27.890Z,-6.80
2018-02-25T21:31:56.268Z,-6.80
2018-02-25T21:34:24.627Z,-6.80
2018-02-25T21:36:52.990Z,-6.70
2018-02-25T21:39:21.338Z,-6.70
2018-02-25T21:41:49.751Z,-6.70
2018-02-25T21:44:18.163Z,-6.70
2018-02-25T21:46:46.482Z,-6.90
2018-02-25T21:49:15.544Z,-7.00
2018-02-25T21:51:43.845Z,-7.00
2018-02-25T21:54:18.738Z,-6.70
2018-02-25T21:56:52.936Z,-6.70
2018-02-25T21:59:27.159Z,-6.70
2018-02-25T22:02:01.981Z,-6.80
2018-02-25T22:04:30.306Z,-6.80
2018-02-25T22:06:58.611Z,-6.70
2018-02-25T22:09:27.014Z,-6.70
2018-02-25T22:11:55.331Z,-6.70
2018-02-25T22:14:23.727Z,-6.70
2018-02-25T22:16:52.078Z,-6.70
2018-02-25T22:19:20.400Z,-6.70
2018-02-25T22:21:48.763Z,-6.80
2018-02-25T22:24:17.870Z,-6.90
2018-02-25T22:26:46.963Z,-7.00
2018-02-25T22:29:15.335Z,-7.00
2018-02-25T22:31:43.853Z,-6.90
2018-02-25T22:34:12.184Z,-7.00
2018-02-25T22:36:40.586Z,-7.10
2018-02-25T22:39:09.732Z,-7.10
2018-02-25T22:41:37.982Z,-7.20
2018-02-25T22:44:06.228Z,-7.10
2018-02-25T22:46:34.479Z,-7.10
2018-02-25T22:49:02.701Z,-7.30
2018-02-25T22:51:31.032Z,-7.20
2018-02-25T22:53:59.222Z,-7.20
2018-02-25T22:56:28.241Z,-7.30
2018-02-25T22:58:56.477Z,-7.30
2018-02-25T23:01:24.677Z,-7.30
2018-02-25T23:03:52.925Z,-7.30
2018-02-25T23:06:21.917Z,-7.40
2018-02-25T23:08:50.941Z,-7.40
2018-02-25T23:11:19.190Z,-7.50
2018-02-25T23:13:47.406Z,-7.50
2018-02-25T23:16:15.658Z,-7.60
2018-02-25T23:18:44.649Z,-7.70
2018-02-25T23:21:13.014Z,-7.70
2018-02-25T23:23:41.209Z,-7.80
2018-02-25T23:26:09.568Z,-7.70
2018-02-25T23:28:37.749Z,-7.60
2018-02-25T23:31:06.729Z,-7.70
2018-02-25T23:33:34.978Z,-7.70
2018-02-25T23:36:03.225Z,-7.70
2018-02-25T23:38:31.462Z,-7.70
2018-02-25T23:40:59.721Z,-7.70
2018-02-25T23:43:28.221Z,-7.80
